Time;durP1;ratioP1;P1;durP2;ratioP2;P2;SDS_P1;SDS_P2;PMS_P1;PMS_P2;Temp;Humidity;BMP_temperature;BMP_pressure;BME280_temperature;BME280_humidity;BME280_pressure;Samples;Min_cycle;Max_cycle;Signal;HPM_P1;HPM_P2
2022/09/14 00:01:24;;;;;;;7.82;3.80;;;;;;;15.66;76.28;99412.03;4450319;32;36402;-83
2022/09/14 00:03:58;;;;;;;6.10;3.75;;;;;;;15.41;77.30;99405.47;4451752;32;33691;-84
2022/09/14 00:06:26;;;;;;;6.32;3.65;;;;;;;15.41;76.97;99406.34;4450210;32;34616;-83
2022/09/14 00:08:56;;;;;;;6.20;3.60;;;;;;;15.52;76.61;99407.44;4450615;32;34147;-84
2022/09/14 00:11:26;;;;;;;6.53;4.10;;;;;;;15.88;74.79;99414.22;4452083;32;36172;-83
2022/09/14 00:13:54;;;;;;;5.50;3.62;;;;;;;15.77;75.00;99410.53;4450505;32;33220;-84
2022/09/14 00:16:28;;;;;;;6.15;3.70;;;;;;;15.72;74.85;99412.13;4437710;32;33650;-85
2022/09/14 00:19:05;;;;;;;6.20;3.60;;;;;;;15.51;75.63;99415.25;4456981;32;34450;-82
2022/09/14 00:21:34;;;;;;;8.23;4.05;;;;;;;15.55;75.51;99409.25;4449199;32;34122;-78
2022/09/14 00:24:03;;;;;;;7.35;3.85;;;;;;;15.40;76.17;99399.41;4453659;32;33324;-82
2022/09/14 00:26:31;;;;;;;7.45;3.50;;;;;;;15.54;75.78;99405.75;4449605;32;34431;-86
2022/09/14 00:29:03;;;;;;;6.12;3.70;;;;;;;15.58;75.46;99404.06;4463605;32;34583;-82
2022/09/14 00:31:36;;;;;;;8.10;3.85;;;;;;;15.83;74.23;99405.41;4453508;32;33775;-82
2022/09/14 00:34:06;;;;;;;6.87;3.92;;;;;;;15.81;74.45;99401.03;4456580;32;33690;-82
2022/09/14 00:36:41;;;;;;;8.27;4.15;;;;;;;15.85;74.44;99406.31;4460672;32;33809;-82
2022/09/14 00:39:09;;;;;;;7.05;4.05;;;;;;;15.86;74.00;99399.37;4451097;32;34546;-83
2022/09/14 00:41:39;;;;;;;7.10;3.72;;;;;;;15.94;73.60;99409.97;4451628;32;33641;-83
2022/09/14 00:44:26;;;;;;;6.18;3.40;;;;;;;16.37;72.01;99410.62;4451385;32;33713;-84
2022/09/14 00:46:56;;;;;;;8.32;3.75;;;;;;;16.26;71.82;99416.59;4452118;32;34955;-85
2022/09/14 00:49:24;;;;;;;7.37;3.37;;;;;;;16.06;72.51;99397.09;4450183;32;33814;-83
2022/09/14 00:51:58;;;;;;;6.55;3.60;;;;;;;16.07;72.63;99401.44;4451872;32;34369;-82
2022/09/14 00:54:25;;;;;;;5.35;3.28;;;;;;;16.11;72.57;99398.06;4453012;32;33221;-81
2022/09/14 00:56:53;;;;;;;8.05;3.17;;;;;;;16.56;70.68;99394.38;4454305;32;33466;-81
2022/09/14 00:59:26;;;;;;;6.40;3.80;;;;;;;16.58;70.18;99382.19;4439762;32;33966;-82
2022/09/14 01:01:54;;;;;;;6.00;3.45;;;;;;;16.59;69.87;99383.06;4452027;32;34068;-82
2022/09/14 01:04:23;;;;;;;7.65;3.35;;;;;;;16.10;71.96;99378.00;4450042;32;34068;-82
2022/09/14 01:07:09;;;;;;;8.70;3.45;;;;;;;15.94;72.78;99376.87;4454087;32;32764;-82
2022/09/14 01:09:48;;;;;;;6.25;3.65;;;;;;;15.48;74.98;99386.50;4454739;32;33937;-82
2022/09/14 01:12:28;;;;;;;7.15;3.62;;;;;;;15.61;74.37;99382.38;4449758;32;34947;-82
2022/09/14 01:15:02;;;;;;;5.40;3.30;;;;;;;15.40;74.94;99382.88;4454608;32;34294;-82
2022/09/14 01:17:49;;;;;;;6.10;3.63;;;;;;;15.96;72.95;99379.53;4455017;32;33535;-82
2022/09/14 01:20:25;;;;;;;5.60;3.40;;;;;;;15.85;73.05;99372.38;4449781;32;33880;-82
2022/09/14 01:23:04;;;;;;;5.55;3.30;;;;;;;15.47;74.87;99380.41;4453129;32;33867;-82
2022/09/14 01:25:59;;;;;;;7.70;4.10;;;;;;;15.16;75.93;99367.59;4450624;32;34382;-82
2022/09/14 01:28:56;;;;;;;8.00;3.60;;;;;;;14.93;77.18;99370.63;4424582;32;34674;-81
2022/09/14 01:31:37;;;;;;;6.40;3.67;;;;;;;14.75;78.33;99379.84;4449567;32;34508;-81
2022/09/14 01:34:15;;;;;;;5.80;3.65;;;;;;;14.67;78.55;99368.37;4452174;32;34091;-81
2022/09/14 01:36:47;;;;;;;6.22;3.78;;;;;;;14.79;78.09;99372.09;4451489;32;34047;-81
2022/09/14 01:39:15;;;;;;;6.72;3.80;;;;;;;14.68;78.40;99364.03;4450299;32;33855;-82
2022/09/14 01:41:44;;;;;;;5.87;3.90;;;;;;;14.51;79.31;99364.53;4451159;32;33168;-82
2022/09/14 01:44:20;;;;;;;7.37;3.90;;;;;;;14.66;78.62;99364.03;4450720;32;34785;-81
2022/09/14 01:46:52;;;;;;;5.70;3.85;;;;;;;14.44;79.19;99354.81;4448216;32;33196;-81
2022/09/14 01:49:31;;;;;;;7.32;4.37;;;;;;;14.82;77.70;99359.13;4449397;32;34389;-81
2022/09/14 01:52:03;;;;;;;8.50;4.30;;;;;;;14.30;79.96;99351.91;4448401;32;33964;-81
2022/09/14 01:54:38;;;;;;;5.68;3.65;;;;;;;14.27;80.24;99340.53;4448063;32;34772;-82
2022/09/14 01:57:30;;;;;;;6.57;3.92;;;;;;;14.34;79.23;99343.31;4451076;32;33481;-81
2022/09/14 02:00:03;;;;;;;5.78;3.37;;;;;;;14.30;79.35;99336.25;4452629;32;34438;-82
2022/09/14 02:02:38;;;;;;;8.32;4.40;;;;;;;14.71;77.53;99333.69;4452515;32;34669;-81
2022/09/14 02:05:10;;;;;;;7.25;4.03;;;;;;;14.90;76.31;99332.34;4453854;32;34742;-82
2022/09/14 02:07:37;;;;;;;6.62;4.43;;;;;;;15.08;75.91;99323.13;4456557;32;33719;-81
2022/09/14 02:10:08;;;;;;;6.18;3.92;;;;;;;15.09;75.46;99320.53;4455374;32;34732;-81
2022/09/14 02:12:36;;;;;;;6.62;3.72;;;;;;;15.14;75.30;99313.69;4451088;32;32448;-83
2022/09/14 02:15:05;;;;;;;6.70;3.75;;;;;;;15.23;74.86;99312.09;4451047;32;33845;-82
2022/09/14 02:17:33;;;;;;;8.02;3.97;;;;;;;15.49;73.90;99310.81;4452432;32;33327;-82
2022/09/14 02:20:05;;;;;;;6.18;3.80;;;;;;;15.56;73.45;99300.47;4452806;32;33883;-82
2022/09/14 02:22:33;;;;;;;8.80;3.85;;;;;;;15.80;72.63;99302.63;4453128;32;34322;-81
2022/09/14 02:25:00;;;;;;;6.30;3.45;;;;;;;16.00;71.88;99302.94;4454737;32;34997;-82
2022/09/14 02:27:28;;;;;;;6.50;3.37;;;;;;;16.17;70.63;99305.78;4450903;32;33558;-82
2022/09/14 02:29:55;;;;;;;6.20;3.70;;;;;;;16.21;69.90;99303.25;4436854;32;32476;-82
2022/09/14 02:32:42;;;;;;;7.50;4.10;;;;;;;15.80;71.56;99300.91;4452438;32;34501;-82
2022/09/14 02:35:22;;;;;;;6.28;3.33;;;;;;;16.09;70.82;99301.34;4451577;32;33679;-82
2022/09/14 02:38:28;;;;;;;5.72;3.55;;;;;;;16.25;70.26;99299.81;4455739;32;33517;-82
2022/09/14 02:41:02;;;;;;;15.35;3.60;;;;;;;16.36;69.57;99306.94;4450493;32;34515;-82
2022/09/14 02:43:54;;;;;;;6.95;3.17;;;;;;;16.35;69.40;99295.59;4450582;32;33958;-82
2022/09/14 02:46:34;;;;;;;7.07;4.40;;;;;;;16.04;70.49;99299.53;4451421;32;35682;-81
2022/09/14 02:49:07;;;;;;;6.12;3.78;;;;;;;15.48;73.74;99303.84;4451196;32;33235;-81
2022/09/14 02:51:46;;;;;;;6.68;4.12;;;;;;;15.30;74.82;99285.28;4453423;32;33932;-81
2022/09/14 02:54:40;;;;;;;6.12;3.80;;;;;;;15.99;72.03;99293.34;4452760;32;34326;-81
2022/09/14 02:57:08;;;;;;;6.40;3.80;;;;;;;16.36;70.53;99288.62;4451281;32;34351;-81
2022/09/14 02:59:36;;;;;;;5.85;3.65;;;;;;;16.33;70.68;99288.59;4455349;32;31894;-82
2022/09/14 03:02:03;;;;;;;8.20;3.85;;;;;;;16.09;71.97;99287.41;4449952;32;33341;-81
2022/09/14 03:04:31;;;;;;;6.70;3.67;;;;;;;16.25;71.75;99268.47;4451501;32;33871;-83
2022/09/14 03:06:59;;;;;;;6.47;3.97;;;;;;;16.37;71.19;99272.09;4457577;32;34448;-82
2022/09/14 03:09:27;;;;;;;5.43;3.00;;;;;;;16.35;71.30;99274.69;4456408;32;34159;-82
2022/09/14 03:11:54;;;;;;;6.40;3.50;;;;;;;16.51;70.38;99275.75;4449882;32;33174;-81
2022/09/14 03:14:22;;;;;;;7.78;3.47;;;;;;;15.98;72.56;99278.53;4452254;32;34027;-81
2022/09/14 03:16:49;;;;;;;9.32;3.70;;;;;;;15.94;72.60;99279.38;4450886;32;32862;-81
2022/09/14 03:19:17;;;;;;;7.25;4.00;;;;;;;15.83;72.96;99274.84;4454435;32;34030;-82
2022/09/14 03:21:44;;;;;;;5.75;3.87;;;;;;;15.84;73.02;99270.47;4457188;32;33794;-81
2022/09/14 03:24:12;;;;;;;7.90;3.85;;;;;;;16.17;71.97;99270.09;4450437;32;33748;-81
2022/09/14 03:26:39;;;;;;;6.90;3.47;;;;;;;16.35;71.32;99268.59;4453301;32;33996;-81
2022/09/14 03:29:07;;;;;;;6.20;3.85;;;;;;;16.69;70.29;99265.53;4452964;32;33630;-81
2022/09/14 03:31:35;;;;;;;7.00;4.15;;;;;;;16.77;69.74;99259.53;4451183;32;33364;-81
2022/09/14 03:34:03;;;;;;;7.37;3.80;;;;;;;16.52;70.43;99256.63;4451428;32;34659;-81
2022/09/14 03:36:30;;;;;;;7.35;3.90;;;;;;;16.43;71.27;99257.38;4451777;32;34888;-81
2022/09/14 03:39:00;;;;;;;6.10;3.60;;;;;;;16.47;71.22;99259.16;4449582;32;33812;-81
2022/09/14 03:41:28;;;;;;;7.35;3.33;;;;;;;16.52;70.77;99251.38;4450462;32;33810;-82
2022/09/14 03:43:55;;;;;;;9.82;4.57;;;;;;;16.33;71.59;99275.53;4449707;32;33803;-82
2022/09/14 03:46:24;;;;;;;10.55;4.00;;;;;;;15.62;74.07;99274.47;4453030;32;33632;-82
2022/09/14 03:48:53;;;;;;;9.32;4.40;;;;;;;15.59;74.35;99280.53;4451790;32;34161;-81
2022/09/14 03:51:21;;;;;;;7.60;3.55;;;;;;;16.21;71.92;99271.91;4453985;32;33603;-81
2022/09/14 03:53:48;;;;;;;5.37;3.22;;;;;;;16.56;69.97;99268.00;4450299;32;32391;-81
2022/09/14 03:56:18;;;;;;;10.05;4.03;;;;;;;16.73;69.14;99265.56;4453356;32;34694;-81
2022/09/14 03:58:46;;;;;;;6.90;3.62;;;;;;;17.00;67.98;99272.88;4453559;32;32495;-81
2022/09/14 04:01:16;;;;;;;7.85;3.75;;;;;;;17.09;67.23;99270.34;4454927;32;33661;-82
2022/09/14 04:03:44;;;;;;;5.93;3.70;;;;;;;17.19;66.96;99271.28;4450087;32;34041;-82
2022/09/14 04:06:13;;;;;;;9.23;4.30;;;;;;;17.13;66.97;99266.00;4453973;32;33958;-81
2022/09/14 04:08:41;;;;;;;6.50;3.72;;;;;;;17.12;66.98;99269.50;4454969;32;33593;-82
2022/09/14 04:11:19;;;;;;;8.25;3.95;;;;;;;17.02;67.27;99272.03;4452505;32;33903;-82
2022/09/14 04:13:47;;;;;;;6.93;4.03;;;;;;;16.99;67.57;99264.13;4455183;32;162278;-82
2022/09/14 04:16:17;;;;;;;8.52;3.95;;;;;;;16.34;70.29;99272.06;4456499;32;34788;-82
2022/09/14 04:18:44;;;;;;;8.30;4.07;;;;;;;15.97;72.54;99271.56;4450537;32;33283;-82
2022/09/14 04:21:17;;;;;;;6.35;3.92;;;;;;;16.49;70.25;99248.72;4456645;32;33659;-82
2022/09/14 04:23:45;;;;;;;7.60;4.00;;;;;;;16.41;70.76;99237.31;4453892;32;33647;-82
2022/09/14 04:26:33;;;;;;;7.15;3.92;;;;;;;16.45;70.46;99241.69;4454176;32;34038;-82
2022/09/14 04:29:00;;;;;;;6.80;4.10;;;;;;;16.31;71.13;99255.47;4452804;32;33596;-82
2022/09/14 04:31:28;;;;;;;6.75;3.75;;;;;;;16.81;69.14;99254.31;4452021;32;33396;-82
2022/09/14 04:33:56;;;;;;;6.28;4.18;;;;;;;17.13;67.92;99239.84;4453918;32;33945;-82
2022/09/14 04:36:28;;;;;;;6.72;3.60;;;;;;;17.23;67.61;99239.06;4451218;32;34333;-82
2022/09/14 04:38:57;;;;;;;10.40;4.47;;;;;;;17.19;67.76;99239.87;4463074;32;33724;-82
2022/09/14 04:41:26;;;;;;;9.93;4.10;;;;;;;17.33;67.13;99243.53;4452720;32;34471;-82
2022/09/14 04:43:54;;;;;;;9.10;4.22;;;;;;;17.32;67.34;99243.50;4457051;32;33972;-82
2022/09/14 04:46:31;;;;;;;8.45;4.45;;;;;;;17.35;67.26;99220.84;4453530;32;34657;-82
2022/09/14 04:48:58;;;;;;;8.13;4.60;;;;;;;17.29;67.34;99220.81;4455260;32;33062;-82
2022/09/14 04:51:29;;;;;;;8.02;4.90;;;;;;;17.23;67.57;99215.50;4455505;32;34391;-82
2022/09/14 04:53:58;;;;;;;11.75;5.22;;;;;;;16.94;68.74;99218.75;4451082;32;33196;-82
2022/09/14 04:56:27;;;;;;;9.80;5.00;;;;;;;16.94;69.25;99217.84;4456258;32;34882;-82
2022/09/14 04:58:57;;;;;;;8.63;5.20;;;;;;;16.49;71.35;99214.72;4454373;32;34339;-82
2022/09/14 05:01:27;;;;;;;7.87;4.35;;;;;;;16.79;70.10;99218.56;4448711;32;32934;-82
2022/09/14 05:03:55;;;;;;;9.02;4.62;;;;;;;17.20;68.37;99215.50;4450956;32;34574;-81
2022/09/14 05:06:25;;;;;;;6.15;4.05;;;;;;;17.30;67.92;99219.94;4451764;32;34023;-80
2022/09/14 05:08:53;;;;;;;7.68;4.03;;;;;;;17.44;67.26;99223.56;4457888;32;33592;-81
2022/09/14 05:11:23;;;;;;;11.77;4.37;;;;;;;17.51;66.92;99221.84;4444666;32;33860;-81
2022/09/14 05:13:51;;;;;;;7.28;4.53;;;;;;;17.69;66.38;99228.94;4452195;32;33818;-81
2022/09/14 05:16:27;;;;;;;7.97;4.70;;;;;;;17.77;66.04;99236.84;4453801;32;34175;-81
2022/09/14 05:19:00;;;;;;;9.95;4.70;;;;;;;17.85;65.70;99238.72;4446839;32;33548;-81
2022/09/14 05:21:29;;;;;;;10.57;4.85;;;;;;;18.10;64.80;99241.47;4449357;32;33573;-82
2022/09/14 05:24:03;;;;;;;8.55;4.80;;;;;;;17.99;65.24;99241.41;4448746;32;33948;-82
2022/09/14 05:26:30;;;;;;;10.13;4.32;;;;;;;18.26;64.39;99230.19;4455190;32;33619;-82
2022/09/14 05:29:00;;;;;;;7.85;4.50;;;;;;;18.13;64.47;99228.38;4457723;32;33537;-82
2022/09/14 05:31:28;;;;;;;7.60;3.90;;;;;;;18.15;64.10;99205.66;4453118;32;33890;-82
2022/09/14 05:33:56;;;;;;;7.87;4.10;;;;;;;18.23;63.67;99209.22;4456656;32;34448;-81
2022/09/14 05:36:24;;;;;;;22.30;5.32;;;;;;;18.10;64.22;99196.03;4456389;32;34821;-82
2022/09/14 05:38:52;;;;;;;9.38;4.40;;;;;;;18.20;63.83;99206.56;4456666;32;33288;-83
2022/09/14 05:41:19;;;;;;;9.93;5.00;;;;;;;18.27;63.60;99213.59;4458374;32;33528;-82
2022/09/14 05:43:47;;;;;;;8.32;3.72;;;;;;;18.29;63.97;99213.56;4460153;32;33879;-82
2022/09/14 05:46:18;;;;;;;9.25;4.43;;;;;;;18.37;63.74;99205.75;4452956;32;33819;-81
2022/09/14 05:48:50;;;;;;;9.23;4.53;;;;;;;18.41;63.41;99199.66;4454023;32;33597;-81
2022/09/14 05:51:20;;;;;;;14.40;5.03;;;;;;;18.42;64.00;99214.50;4453788;32;34357;-82
2022/09/14 05:53:52;;;;;;;7.20;4.00;;;;;;;18.31;64.80;99232.84;4450140;32;32721;-81
2022/09/14 05:56:22;;;;;;;8.30;4.18;;;;;;;18.53;63.38;99225.91;4447393;32;33826;-81
2022/09/14 05:58:49;;;;;;;8.57;4.03;;;;;;;18.72;62.87;99234.72;4449786;32;33583;-82
2022/09/14 06:01:23;;;;;;;8.15;4.28;;;;;;;19.19;62.17;99219.97;4453613;32;33628;-84
2022/09/14 06:03:55;;;;;;;7.28;4.18;;;;;;;19.20;62.71;99221.69;4454198;32;33687;-82
2022/09/14 06:06:23;;;;;;;6.53;3.97;;;;;;;18.99;63.57;99212.94;4455767;32;33525;-83
2022/09/14 06:08:52;;;;;;;8.20;4.30;;;;;;;19.21;62.64;99212.97;4452098;32;33522;-83
2022/09/14 06:11:22;;;;;;;7.85;3.97;;;;;;;19.12;62.49;99216.44;4453024;32;33651;-81
2022/09/14 06:13:50;;;;;;;8.38;3.83;;;;;;;19.01;61.79;99211.19;4456314;32;34538;-82
2022/09/14 06:16:19;;;;;;;7.70;3.60;;;;;;;19.10;60.76;99204.19;4456694;32;33776;-83
2022/09/14 06:18:48;;;;;;;8.20;3.50;;;;;;;18.91;60.96;99192.81;4452283;32;33556;-83
2022/09/14 06:21:19;;;;;;;8.93;3.90;;;;;;;19.18;60.14;99202.44;4450347;32;32203;-83
2022/09/14 06:23:48;;;;;;;10.90;3.97;;;;;;;19.21;60.86;99210.34;4451680;32;33728;-83
2022/09/14 06:26:19;;;;;;;11.40;4.03;;;;;;;19.38;59.88;99208.59;4452019;32;32048;-82
2022/09/14 06:28:48;;;;;;;11.52;4.30;;;;;;;19.62;58.56;99204.19;4449104;32;33426;-83
2022/09/14 06:31:16;;;;;;;7.80;4.07;;;;;;;19.76;58.06;99202.44;4455934;32;33641;-82
2022/09/14 06:33:45;;;;;;;10.95;4.05;;;;;;;19.90;57.28;99214.69;4450671;32;33998;-83
2022/09/14 06:36:15;;;;;;;8.35;3.83;;;;;;;19.92;56.85;99223.44;4452960;32;33875;-83
2022/09/14 06:38:43;;;;;;;11.00;4.40;;;;;;;20.01;57.21;99223.41;4449040;32;33801;-82
2022/09/14 06:41:13;;;;;;;9.05;4.55;;;;;;;20.02;57.07;99246.19;4446470;32;33793;-83
2022/09/14 06:43:41;;;;;;;10.75;4.12;;;;;;;19.90;58.07;99251.50;4450688;32;34205;-82
2022/09/14 06:46:22;;;;;;;11.00;4.40;;;;;;;20.31;56.10;99245.22;4450854;32;34003;-83
2022/09/14 06:48:54;;;;;;;10.75;4.22;;;;;;;20.19;56.14;99259.31;4444693;32;33374;-82
2022/09/14 06:51:27;;;;;;;8.45;4.28;;;;;;;20.27;55.31;99248.75;4450063;32;33850;-83
2022/09/14 06:53:58;;;;;;;9.43;4.47;;;;;;;20.24;55.68;99260.13;4446622;32;33746;-83
2022/09/14 06:56:28;;;;;;;7.97;4.12;;;;;;;20.35;55.44;99249.59;4449141;32;34839;-82
2022/09/14 06:58:56;;;;;;;9.25;4.10;;;;;;;20.02;56.77;99230.41;4451309;32;34386;-82
2022/09/14 07:01:25;;;;;;;9.80;4.57;;;;;;;20.03;57.64;99227.78;4437359;32;33991;-82
2022/09/14 07:03:53;;;;;;;9.02;4.82;;;;;;;20.10;58.08;99227.78;4437805;32;33422;-81
2022/09/14 07:06:24;;;;;;;12.20;5.00;;;;;;;19.52;61.73;99212.94;4449157;32;33607;-81
2022/09/14 07:08:52;;;;;;;8.73;5.10;;;;;;;19.55;62.38;99207.72;4452907;32;32878;-84
2022/09/14 07:11:26;;;;;;;10.40;4.93;;;;;;;19.58;61.83;99207.69;4452829;32;33759;-82
2022/09/14 07:13:57;;;;;;;9.13;4.93;;;;;;;19.57;61.75;99213.84;4453347;32;34479;-82
2022/09/14 07:16:25;;;;;;;11.23;5.60;;;;;;;19.51;62.68;99216.44;4439644;32;33689;-83
2022/09/14 07:18:58;;;;;;;9.05;5.55;;;;;;;19.58;64.14;99239.22;4452085;32;34147;-82
2022/09/14 07:21:27;;;;;;;9.70;5.43;;;;;;;19.68;63.75;99238.31;4453174;32;33862;-81
2022/09/14 07:23:54;;;;;;;11.32;5.62;;;;;;;19.56;63.80;99235.72;4450765;32;33642;-82
2022/09/14 07:26:24;;;;;;;9.27;5.35;;;;;;;19.27;67.21;99228.72;4453815;32;34809;-81
2022/09/14 07:28:58;;;;;;;10.02;5.95;;;;;;;19.49;66.48;99223.44;4454195;32;34366;-83
2022/09/14 07:31:47;;;;;;;11.27;6.47;;;;;;;19.35;68.07;99229.56;4450108;32;34591;-82
2022/09/14 07:34:15;;;;;;;10.45;6.45;;;;;;;19.07;70.48;99225.22;4453727;32;34726;-83
2022/09/14 07:36:42;;;;;;;8.93;5.43;;;;;;;19.28;69.66;99230.47;4452476;32;34806;-82
2022/09/14 07:39:12;;;;;;;9.75;5.97;;;;;;;19.86;67.55;99239.19;4449487;32;33274;-84
2022/09/14 07:41:40;;;;;;;10.82;6.03;;;;;;;19.34;68.54;99229.59;4452796;32;34415;-80
2022/09/14 07:44:09;;;;;;;9.55;5.85;;;;;;;18.95;68.94;99218.16;4452659;32;33720;-83
2022/09/14 07:46:39;;;;;;;8.38;5.62;;;;;;;19.56;66.89;99219.94;4453331;32;34693;-84
2022/09/14 07:49:07;;;;;;;10.85;6.00;;;;;;;19.99;65.53;99214.63;4460206;32;32871;-80
2022/09/14 07:51:35;;;;;;;9.75;5.85;;;;;;;20.08;65.39;99209.34;4453670;32;33818;-82
2022/09/14 07:54:05;;;;;;;9.60;5.65;;;;;;;20.18;65.18;99211.06;4452103;32;34031;-81
2022/09/14 07:56:33;;;;;;;9.00;6.10;;;;;;;20.10;65.23;99218.13;4452345;32;34541;-82
2022/09/14 07:59:03;;;;;;;12.93;5.97;;;;;;;20.08;64.44;99209.34;4451902;32;33280;-83
2022/09/14 08:01:51;;;;;;;9.07;5.75;;;;;;;20.39;62.97;99209.25;4451063;32;33985;-84
2022/09/14 08:04:22;;;;;;;12.57;5.90;;;;;;;20.17;63.54;99193.56;4437636;32;32797;-85
2022/09/14 08:06:50;;;;;;;11.80;5.62;;;;;;;19.96;64.02;99177.87;4442133;32;32409;-83
2022/09/14 08:09:17;;;;;;;11.63;5.72;;;;;;;19.69;64.72;99174.41;4447898;32;33415;-84
2022/09/14 08:11:44;;;;;;;11.63;5.45;;;;;;;20.00;63.81;99176.97;4454619;32;34706;-83
2022/09/14 08:14:12;;;;;;;11.52;5.55;;;;;;;19.96;64.03;99196.25;4452001;32;34618;-85
2022/09/14 08:16:40;;;;;;;11.15;5.53;;;;;;;20.00;63.64;99190.97;4453384;32;34114;-83
2022/09/14 08:19:14;;;;;;;13.07;6.05;;;;;;;20.09;63.47;99190.09;4450472;32;34312;-84
2022/09/14 08:21:41;;;;;;;11.75;5.75;;;;;;;20.11;63.62;99183.06;4453586;32;33918;-84
2022/09/14 08:24:16;;;;;;;9.70;5.28;;;;;;;20.34;62.54;99185.59;4451923;32;33330;-81
2022/09/14 08:26:45;;;;;;;12.27;5.65;;;;;;;20.57;61.89;99187.22;4451559;32;33344;-84
2022/09/14 08:29:14;;;;;;;9.85;5.57;;;;;;;20.38;62.72;99183.84;4453954;32;33663;-84
2022/09/14 08:31:43;;;;;;;9.05;5.07;;;;;;;20.59;62.20;99170.59;4454699;32;34436;-86
2022/09/14 08:34:10;;;;;;;10.63;5.57;;;;;;;20.79;61.44;99166.97;4451556;32;33865;-87
2022/09/14 08:36:39;;;;;;;11.68;5.03;;;;;;;20.73;61.53;99162.59;4451063;32;34304;-84
2022/09/14 08:39:09;;;;;;;8.50;5.22;;;;;;;20.61;61.81;99160.94;4448043;32;33295;-86
2022/09/14 08:41:42;;;;;;;10.63;5.12;;;;;;;21.03;61.25;99171.16;4456299;32;33765;-84
2022/09/14 08:44:17;;;;;;;8.23;5.37;;;;;;;21.54;60.16;99173.41;4451946;32;34069;-84
2022/09/14 08:46:52;;;;;;;9.15;5.07;;;;;;;21.77;59.40;99181.94;4450045;32;34287;-90
2022/09/14 08:49:28;;;;;;;7.57;5.00;;;;;;;21.66;60.06;99170.63;4449115;32;34203;-86
2022/09/14 08:51:56;;;;;;;9.10;5.65;;;;;;;21.95;58.83;99180.00;4444342;32;32908;-85
2022/09/14 08:54:24;;;;;;;10.23;5.30;;;;;;;21.77;59.46;99176.66;4451098;32;35702;-85
2022/09/14 08:57:01;;;;;;;11.40;5.90;;;;;;;22.06;59.10;99157.00;4450669;32;33968;-83
2022/09/14 09:00:04;;;;;;;10.50;5.70;;;;;;;22.34;57.67;99151.41;4439390;32;33441;-82
2022/09/14 09:02:46;;;;;;;10.00;5.78;;;;;;;22.40;57.35;99166.28;4453635;32;33672;-84
2022/09/14 09:05:24;;;;;;;10.85;6.10;;;;;;;22.27;58.01;99155.91;4453005;32;34527;-86
2022/09/14 09:08:07;;;;;;;12.75;6.12;;;;;;;22.31;58.37;99157.59;4451456;32;34177;-86
2022/09/14 09:10:36;;;;;;;13.25;5.65;;;;;;;22.49;57.76;99151.19;4451718;32;34540;-84
2022/09/14 09:13:04;;;;;;;9.43;5.68;;;;;;;22.81;57.01;99151.59;4452597;32;34654;-81
2022/09/14 09:15:44;;;;;;;9.35;5.35;;;;;;;22.73;56.69;99154.37;4449902;32;34639;-85
2022/09/14 09:18:19;;;;;;;10.77;5.72;;;;;;;22.83;57.03;99171.84;4451336;32;34563;-84
2022/09/14 09:20:50;;;;;;;14.52;6.12;;;;;;;23.09;56.10;99178.50;4453832;32;33469;-83
2022/09/14 09:23:21;;;;;;;11.12;5.87;;;;;;;23.52;54.62;99185.69;4446588;32;34129;-85
2022/09/14 09:26:10;;;;;;;9.07;5.45;;;;;;;23.53;54.89;99196.25;4452740;32;33274;-81
2022/09/14 09:28:48;;;;;;;11.48;5.43;;;;;;;23.59;55.14;99192.63;4446768;32;34976;-84
2022/09/14 09:31:18;;;;;;;10.55;5.65;;;;;;;23.85;54.26;99196.59;4447274;32;34048;-86
2022/09/14 09:33:49;;;;;;;9.15;4.87;;;;;;;23.43;54.53;99196.41;4450192;32;34560;-82
2022/09/14 09:36:17;;;;;;;9.63;4.57;;;;;;;23.59;55.45;99197.91;4453060;32;33627;-83
2022/09/14 09:38:45;;;;;;;14.35;5.40;;;;;;;24.36;53.10;99193.81;4451789;32;34908;-83
2022/09/14 09:41:24;;;;;;;8.55;5.43;;;;;;;24.24;53.34;99199.34;4452927;32;33833;-85
2022/09/14 09:43:58;;;;;;;13.73;5.93;;;;;;;24.03;53.26;99204.19;4445927;32;32537;-87
2022/09/14 09:46:32;;;;;;;15.13;5.97;;;;;;;24.30;52.95;99191.28;4450690;32;32009;-86
2022/09/14 09:49:13;;;;;;;12.43;4.68;;;;;;;24.55;52.80;99182.84;4453573;32;34255;-87
2022/09/14 09:51:41;;;;;;;9.35;4.62;;;;;;;24.58;53.13;99177.50;4452490;32;33258;-88
2022/09/14 09:54:11;;;;;;;11.45;4.75;;;;;;;24.69;52.58;99180.78;4454328;32;34838;-86
2022/09/14 09:56:59;;;;;;;10.13;5.25;;;;;;;24.88;52.46;99192.69;4452919;32;33291;-87
2022/09/14 09:59:30;;;;;;;14.45;5.32;;;;;;;23.90;53.86;99184.16;4453056;32;34752;-85
2022/09/14 10:02:26;;;;;;;9.38;4.82;;;;;;;23.84;55.22;99198.38;4454231;32;33958;-86
2022/09/14 10:04:59;;;;;;;6.62;4.65;;;;;;;24.46;53.29;99190.06;4441388;32;33846;-88
2022/09/14 10:07:28;;;;;;;7.37;4.57;;;;;;;24.13;54.02;99203.09;4452131;32;32072;-85
2022/09/14 10:10:02;;;;;;;10.10;4.53;;;;;;;24.68;52.44;99208.13;4452227;32;33658;-87
2022/09/14 10:12:29;;;;;;;9.85;5.32;;;;;;;24.88;51.77;99218.31;4453182;32;33571;-87
2022/09/14 10:15:27;;;;;;;8.57;5.22;;;;;;;24.92;51.89;99215.53;4453031;32;34407;-87
2022/09/14 10:18:12;;;;;;;11.10;5.70;;;;;;;25.19;50.98;99215.81;4452331;32;33946;-84
2022/09/14 10:20:51;;;;;;;9.52;5.22;;;;;;;24.68;51.90;99201.06;4450484;32;34779;-83
2022/09/14 10:23:21;;;;;;;12.85;4.85;;;;;;;24.99;51.42;99204.78;4451710;32;33953;-82
2022/09/14 10:26:12;;;;;;;8.57;4.78;;;;;;;24.93;52.04;99195.22;4452612;32;33515;-83
2022/09/14 10:28:43;;;;;;;8.32;4.43;;;;;;;25.06;52.32;99186.06;4450852;32;33801;-87
2022/09/14 10:31:14;;;;;;;14.15;4.72;;;;;;;25.15;52.00;99179.69;4451141;32;34304;-85
2022/09/14 10:33:43;;;;;;;7.97;5.18;;;;;;;25.22;51.78;99175.97;4450692;32;32359;-85
2022/09/14 10:36:31;;;;;;;8.88;5.20;;;;;;;24.93;52.50;99169.56;4453110;32;33547;-87
2022/09/14 10:39:25;;;;;;;9.73;5.10;;;;;;;25.06;51.90;99174.59;4452875;32;32160;-85
2022/09/14 10:41:55;;;;;;;11.05;5.00;;;;;;;25.18;51.94;99174.28;4449269;32;33561;-81
2022/09/14 10:44:39;;;;;;;11.32;4.82;;;;;;;25.07;52.06;99177.22;4452912;32;33679;-85
2022/09/14 10:47:25;;;;;;;9.50;5.12;;;;;;;25.17;52.30;99183.16;4424272;32;33105;-84
2022/09/14 10:50:05;;;;;;;11.57;5.10;;;;;;;25.31;51.72;99175.75;4452047;32;33133;-83
2022/09/14 10:52:33;;;;;;;10.50;4.78;;;;;;;25.17;52.17;99177.87;4451992;32;34186;-83
2022/09/14 10:55:13;;;;;;;11.40;4.68;;;;;;;25.40;51.79;99181.72;4452488;32;35267;-82
2022/09/14 10:57:49;;;;;;;7.60;5.10;;;;;;;25.78;51.43;99179.84;4448009;32;33651;-83
2022/09/14 11:00:21;;;;;;;9.90;5.50;;;;;;;25.78;50.73;99178.06;4452667;32;33664;-84
2022/09/14 11:03:18;;;;;;;10.52;5.45;;;;;;;25.38;51.65;99191.50;4451690;32;32750;-85
2022/09/14 11:05:58;;;;;;;10.30;5.10;;;;;;;25.22;52.37;99186.59;4453227;32;33826;-83
2022/09/14 11:08:41;;;;;;;11.57;5.47;;;;;;;25.50;52.72;99185.91;4453197;32;33942;-85
2022/09/14 11:11:27;;;;;;;14.27;4.93;;;;;;;25.13;53.31;99181.50;4447345;32;33794;-85
2022/09/14 11:13:57;;;;;;;9.63;4.90;;;;;;;25.60;51.93;99182.09;4446649;32;33872;-84
2022/09/14 11:16:43;;;;;;;8.07;4.82;;;;;;;25.63;52.14;99171.41;4450948;32;33919;-84
2022/09/14 11:19:29;;;;;;;9.18;4.60;;;;;;;25.53;52.51;99164.59;4445893;32;33915;-84
2022/09/14 11:22:03;;;;;;;8.43;4.57;;;;;;;25.74;52.24;99162.28;4450837;32;35250;-85
2022/09/14 11:24:50;;;;;;;9.43;4.70;;;;;;;25.34;53.02;99163.34;4451919;32;34280;-83
2022/09/14 11:27:26;;;;;;;7.68;4.45;;;;;;;25.69;51.77;99165.94;4450422;32;33487;-84
2022/09/14 11:30:00;;;;;;;9.07;4.28;;;;;;;25.59;52.04;99159.12;4414922;32;33502;-82
2022/09/14 11:32:36;;;;;;;7.57;4.25;;;;;;;25.15;53.50;99163.78;4449291;32;34307;-84
2022/09/14 11:35:19;;;;;;;8.40;4.50;;;;;;;25.49;52.69;99157.63;4451089;32;33642;-86
2022/09/14 11:38:06;;;;;;;8.48;4.80;;;;;;;25.63;52.52;99166.09;4450562;32;33751;-86
2022/09/14 11:41:15;;;;;;;7.37;4.28;;;;;;;25.77;51.94;99152.47;4452040;32;33998;-86
2022/09/14 11:43:49;;;;;;;7.32;4.18;;;;;;;25.67;52.80;99145.66;4449237;32;33789;-85
2022/09/14 11:46:30;;;;;;;7.12;4.72;;;;;;;25.76;52.77;99128.62;4450696;32;34203;-84
2022/09/14 11:49:13;;;;;;;8.27;4.35;;;;;;;25.74;53.22;99126.00;4451283;32;33498;-84
2022/09/14 11:51:54;;;;;;;9.23;5.00;;;;;;;25.57;53.36;99142.38;4453270;32;33861;-85
2022/09/14 11:54:22;;;;;;;8.63;4.72;;;;;;;25.81;52.37;99142.63;4452636;32;33782;-86
2022/09/14 11:56:55;;;;;;;9.80;4.90;;;;;;;25.60;53.58;99149.41;4448398;32;33718;-83
2022/09/14 11:59:38;;;;;;;9.43;4.20;;;;;;;25.88;52.44;99141.53;4452093;32;34408;-81